Terminal Aerodrome Forecast
Issued by NWS Lake Charles, LA

Home | Current Version | Previous Version | Text Only | Print | Product List | Glossary On
Versions: 1 2 3 4 5 6 7 8 9 10 11 12 13 14 15 16 17 18 19 20
583
FTUS44 KLCH 270520
TAFLCH
TAF
KLCH 270520Z 2706/2806 VRB04KT P6SM VCSH BKN060
     FM271400 22010KT P6SM VCTS SCT035CB
     FM280200 VRB05KT P6SM BKN250=

USA.gov is the U.S. government's official web portal to all federal, state and local government web resources and services.